Flight Track Log - Related Links

Times and Time Zones

All times are in EDT time to prevent confusion due to time zone crossing. See the KAP927 flight status page for this flight to view local times or setup timezone preferences in your user account.

Time Position Orientation Groundspeed Altitude Reporting Facility
EDT Latitude Longitude Course Direction KTS MPH feet Rate Location/Type
Sat 06:54:44 AM 44.5403 -75.3061 148° Southeast 156 180 4,300  Level Boston Center
Sat 06:55:44 AM 44.5075 -75.2814 152° Southeast 151 174 5,100 750 Climbing Boston Center
Sat 06:56:44 AM 44.4769 -75.2536 147° Southeast 139 160 5,800 700 Climbing Boston Center
Sat 06:57:44 AM 44.4486 -75.2261 145° Southeast 132 152 6,500 700 Climbing Boston Center
Sat 06:58:44 AM 44.4158 -75.1983 149° Southeast 132 152 7,200 500 Climbing Boston Center
Sat 06:59:00 AM 44.5222 -75.3231 149° Southeast  Level Estimated
Sat 06:59:44 AM 44.3811 -75.1736 153° Southeast 138 159 7,500  Level Boston Center
Sat 07:00:00 AM 44.4878 -75.2931 148° Southeast  Level FlightAware Approximate
Sat 07:00:56 AM 44.3442 -75.1400 147° Southeast 143 165 7,500  Level Boston Center
Sat 07:01:56 AM 44.2994 -75.0972 146° Southeast 154 177 7,500  Level Boston Center
Sat 07:02:56 AM 44.2606 -75.0636 148° Southeast 159 183 7,500  Level Boston Center
Sat 07:03:56 AM 44.2217 -75.0300 148° Southeast 159 183 7,500  Level Boston Center
Sat 07:04:56 AM 44.1850 -74.9967 147° Southeast 164 189 7,500  Level Boston Center
Sat 07:05:56 AM 44.1461 -74.9631 148° Southeast 164 189 7,500  Level Boston Center
Sat 07:06:56 AM 44.1050 -74.9325 152° Southeast 164 189 7,500  Level Boston Center
Sat 07:07:56 AM 44.0683 -74.8992 147° Southeast 164 189 7,500 -50 Level Boston Center
Sat 07:08:56 AM 44.0275 -74.8628 147° Southeast 164 189 7,400 -50 Descending Boston Center
Sat 07:09:56 AM 43.9883 -74.8322 151° Southeast 164 189 7,400  Level Boston Center
Sat 07:10:56 AM 43.9517 -74.7992 147° Southeast 164 189 7,400 50 Level Boston Center
Sat 07:11:56 AM 43.9106 -74.7658 150° Southeast 164 189 7,500 50 Climbing Boston Center
Sat 07:12:56 AM 43.8717 -74.7325 148° Southeast 164 189 7,500  Level Boston Center
Sat 07:13:56 AM 43.8328 -74.6994 148° Southeast 164 189 7,500  Level Boston Center
Sat 07:14:56 AM 43.7958 -74.6664 147° Southeast 164 189 7,500  Level Boston Center
Sat 07:15:56 AM 43.7547 -74.6333 150° Southeast 164 189 7,500  Level Boston Center
Sat 07:16:56 AM 43.7181 -74.6003 147° Southeast 164 189 7,500  Level Boston Center
Sat 07:17:56 AM 43.6789 -74.5703 151° Southeast 164 189 7,500  Level Boston Center
Sat 07:18:56 AM 43.6400 -74.5372 148° Southeast 164 189 7,500  Level Boston Center
Sat 07:19:56 AM 43.6031 -74.5044 147° Southeast 164 189 7,500  Level Boston Center
Sat 07:20:56 AM 43.5639 -74.4717 149° Southeast 164 189 7,500  Level Boston Center
Sat 07:21:56 AM 43.5228 -74.4417 152° Southeast 164 189 7,500  Level Boston Center
Sat 07:22:56 AM 43.4839 -74.4058 146° Southeast 164 189 7,500  Level Boston Center
Sat 07:23:13 AM 43.4736 -74.4028 168° South 166 191 7,500  Level Boston Center
Sat 07:23:56 AM 43.4447 -74.3733 143° Southeast 164 189 7,500  Level Boston Center
Sat 07:24:32 AM 43.4222 -74.3553 150° Southeast 167 192 7,500  Level Boston Center
Sat 07:24:56 AM 43.4036 -74.3406 150° Southeast 164 189 7,500  Level Boston Center
Sat 07:25:32 AM 43.3792 -74.3197 148° Southeast 167 192 7,500  Level Boston Center
Sat 07:25:56 AM 43.3647 -74.3050 143° Southeast 164 189 7,500  Level Boston Center
Sat 07:26:33 AM 43.3419 -74.2872 150° Southeast 166 191 7,500  Level Boston Center
Sat 07:26:56 AM 43.3256 -74.2725 147° Southeast 164 189 7,500  Level Boston Center
Sat 07:27:34 AM 43.3008 -74.2544 152° Southeast 166 191 7,500  Level Boston Center
Sat 07:27:56 AM 43.2906 -74.2428 140° Southeast 164 189 7,500 -200 Level Boston Center
Sat 07:28:34 AM 43.2617 -74.2219 152° Southeast 166 191 7,300 -333 Descending Boston Center
Sat 07:29:08 AM 43.2372 -74.2014 149° Southeast 164 189 7,100 -393 Descending Boston Center
Sat 07:29:35 AM 43.2206 -74.1922 158° South 175 201 6,900 -300 Descending Boston Center
Sat 07:30:08 AM 43.1981 -74.1717 146° Southeast 169 194 6,800 -400 Descending Boston Center
Sat 07:30:35 AM 43.1753 -74.1569 155° Southeast 174 200 6,500 -500 Descending Boston Center
Sat 07:31:08 AM 43.1547 -74.1364 144° Southeast 169 194 6,300 -393 Descending Boston Center
Sat 07:31:36 AM 43.1361 -74.1217 150° Southeast 172 198 6,100 -400 Descending Boston Center
Sat 07:32:08 AM 43.1178 -74.1069 150° Southeast 169 194 5,900 -492 Descending Boston Center
Sat 07:32:37 AM 43.0931 -74.0864 149° Southeast 170 196 5,600 -600 Descending Boston Center
Sat 07:33:08 AM 43.0725 -74.0658 144° Southeast 169 194 5,300 -600 Descending Boston Center
Sat 07:33:37 AM 43.0517 -74.0539 157° South 174 200 5,000 -600 Descending Boston Center
Sat 07:34:08 AM 43.0353 -74.0364 142° Southeast 174 200 4,700 -689 Descending Boston Center
Sat 07:34:38 AM 43.0106 -74.0189 153° Southeast 178 205 4,300 -700 Descending Boston Center
Sat 07:35:08 AM 42.9878 -73.9983 147° Southeast 179 206 4,000 -667 Descending Boston Center
Sat 07:35:32 AM 42.9714 -73.9867 152° Southeast 179 206 3,700 -500 Descending Boston Center
Sat 07:36:08 AM 42.9550 -73.9633 134° Southeast 179 206 3,500 -492 Descending Boston Center
Sat 07:36:33 AM 42.9344 -73.9403 141° Southeast 174 200 3,200 -400 Descending Boston Center
Sat 07:37:08 AM 42.9139 -73.9142 137° Southeast 179 206 3,100 -82 Descending Boston Center
Sat 07:37:46 AM 42.8975 -73.8911 134° Southeast 160 184 3,100  Level Boston Center
Sat 07:38:08 AM 42.8872 -73.8767 134° Southeast 167 192 3,100 -600 Level Boston Center
Sat 07:38:46 AM 42.8669 -73.8422 129° Southeast 163 188 2,500 -848 Descending Boston Center
Sat 07:39:47 AM 42.8256 -73.8103 150° Southeast 164 189 1,700 -787 Descending Boston Center
Sat 07:40:48 AM 42.7839 -73.8064 176° South 144 166 900 -787 Descending Boston Center
Sat 07:42:00 AM 42.7491 -73.8020 175° South  Level Estimated
Sat 07:49:00 AM 42.7491 -73.8020 160° South  Level Estimated
Sat 07:50:00 AM 42.7491 -73.8020 160° South  Level Estimated
Sat 07:51:00 AM 42.7491 -73.8020 160° South  Level Estimated
Sat 07:52:00 AM 42.7491 -73.8020 160° South  Level Estimated

Login

Don't have an account? Register now (free) for customized features, flight alerts, and more!